Time;durP1;ratioP1;P1;durP2;ratioP2;P2;SDS_P1;SDS_P2;PMS_P1;PMS_P2;Temp;Humidity;BMP_temperature;BMP_pressure;BME280_temperature;BME280_humidity;BME280_pressure;Samples;Min_cycle;Max_cycle;Signal;HPM_P1;HPM_P2
2022/03/30 00:01:21;;;;;;;24.43;11.30;;;7.30;99.90;;;;;;5072395;28;20236;-61
2022/03/30 00:03:48;;;;;;;31.40;13.73;;;7.20;99.90;;;;;;5072132;28;20211;-61
2022/03/30 00:06:15;;;;;;;25.47;12.87;;;7.20;99.90;;;;;;5071961;28;20229;-62
2022/03/30 00:08:42;;;;;;;24.67;12.87;;;7.20;99.90;;;;;;5072191;28;20201;-61
2022/03/30 00:11:09;;;;;;;26.57;13.57;;;7.10;99.90;;;;;;5072296;28;20217;-61
2022/03/30 00:13:36;;;;;;;21.67;9.83;;;7.10;99.90;;;;;;5071958;28;20206;-61
2022/03/30 00:16:03;;;;;;;29.10;12.90;;;7.10;99.90;;;;;;5071631;28;20665;-61
2022/03/30 00:18:31;;;;;;;28.80;13.47;;;7.10;99.90;;;;;;5071897;28;20293;-61
2022/03/30 00:20:58;;;;;;;26.63;13.73;;;7.10;99.90;;;;;;5071963;28;20339;-62
2022/03/30 00:23:24;;;;;;;26.00;11.20;;;7.10;99.90;;;;;;5072027;28;20207;-61
2022/03/30 00:25:51;;;;;;;26.80;11.20;;;7.10;99.90;;;;;;5072127;28;20573;-62
2022/03/30 00:28:18;;;;;;;28.60;13.33;;;7.10;99.90;;;;;;5071984;28;20254;-62
2022/03/30 00:30:45;;;;;;;30.83;13.87;;;7.10;99.90;;;;;;5071591;28;20210;-61
2022/03/30 00:33:12;;;;;;;24.30;11.60;;;7.00;99.90;;;;;;5071680;28;20235;-63
2022/03/30 00:35:40;;;;;;;25.63;12.50;;;7.00;99.90;;;;;;5071524;28;20232;-61
2022/03/30 00:38:06;;;;;;;28.23;14.00;;;7.00;99.90;;;;;;5071265;28;20210;-61
2022/03/30 00:40:33;;;;;;;22.60;11.27;;;6.90;99.90;;;;;;5071744;28;20211;-61
2022/03/30 00:43:01;;;;;;;28.90;14.70;;;6.90;99.90;;;;;;5071800;28;20212;-62
2022/03/30 00:45:28;;;;;;;26.77;13.70;;;6.90;99.90;;;;;;5071526;28;20276;-62
2022/03/30 00:47:55;;;;;;;27.40;12.93;;;6.90;99.90;;;;;;5071309;28;20581;-61
2022/03/30 00:50:23;;;;;;;27.73;13.60;;;6.90;99.90;;;;;;5071829;28;20212;-62
2022/03/30 00:52:54;;;;;;;22.93;12.27;;;6.90;99.90;;;;;;5071661;28;20551;-62
2022/03/30 00:55:22;;;;;;;30.83;14.30;;;6.90;99.90;;;;;;5071613;28;20234;-62
2022/03/30 00:57:48;;;;;;;28.70;14.37;;;6.80;99.90;;;;;;5072035;28;20209;-62
2022/03/30 01:00:16;;;;;;;27.93;13.47;;;6.80;99.90;;;;;;5075533;28;20234;-61
2022/03/30 01:02:45;;;;;;;26.37;13.03;;;6.70;1.00;;;;;;5075745;28;20289;-61
2022/03/30 01:05:12;;;;;;;31.00;13.43;;;6.70;1.00;;;;;;5075214;28;20676;-62
2022/03/30 01:07:39;;;;;;;27.10;14.63;;;6.70;1.00;;;;;;5075294;28;20211;-63
2022/03/30 01:10:09;;;;;;;27.90;12.93;;;6.70;1.00;;;;;;5075311;28;20238;-62
2022/03/30 01:12:39;;;;;;;27.60;14.17;;;6.60;1.00;;;;;;5075223;28;20213;-62
2022/03/30 01:15:06;;;;;;;31.10;13.90;;;6.60;1.00;;;;;;5075368;28;20207;-61
2022/03/30 01:17:33;;;;;;;29.57;13.27;;;6.60;1.00;;;;;;5075094;28;20215;-62
2022/03/30 01:20:00;;;;;;;31.37;14.77;;;6.50;1.00;;;;;;5075012;28;20322;-62
2022/03/30 01:22:28;;;;;;;26.90;13.73;;;6.50;1.00;;;;;;5075173;28;20292;-62
2022/03/30 01:24:54;;;;;;;32.17;14.03;;;6.50;1.00;;;;;;5075213;28;20237;-62
2022/03/30 01:27:21;;;;;;;27.77;13.80;;;6.40;1.00;;;;;;5074677;28;20229;-61
2022/03/30 01:32:31;;;;;;;33.00;14.13;;;6.30;99.90;;;;;;5063430;28;20204;-62
2022/03/30 01:34:59;;;;;;;29.57;14.07;;;6.30;99.90;;;;;;5074950;28;20293;-62
2022/03/30 01:37:29;;;;;;;34.33;14.97;;;6.30;99.90;;;;;;5074241;28;20244;-62
2022/03/30 01:39:57;;;;;;;30.27;14.23;;;6.20;99.90;;;;;;5075051;28;20229;-62
2022/03/30 01:42:24;;;;;;;29.60;14.13;;;6.10;99.90;;;;;;5074626;28;20799;-61
2022/03/30 01:44:51;;;;;;;29.57;14.33;;;6.10;99.90;;;;;;5074725;28;20687;-62
2022/03/30 01:47:18;;;;;;;27.30;14.00;;;6.00;99.90;;;;;;5074355;28;20976;-62
2022/03/30 01:49:44;;;;;;;29.70;14.50;;;6.00;99.90;;;;;;5074496;28;20205;-62
2022/03/30 01:52:12;;;;;;;31.87;14.50;;;6.00;99.90;;;;;;5074585;28;20255;-62
2022/03/30 01:54:41;;;;;;;30.93;13.97;;;6.00;99.90;;;;;;5074431;28;20728;-61
2022/03/30 01:57:12;;;;;;;31.57;14.10;;;5.90;99.90;;;;;;5074273;28;20257;-61
2022/03/30 01:59:39;;;;;;;29.03;14.70;;;5.80;1.00;;;;;;5074554;28;20209;-61
2022/03/30 02:02:07;;;;;;;29.03;14.97;;;5.80;1.00;;;;;;5074504;28;20288;-61
2022/03/30 02:04:35;;;;;;;24.07;14.10;;;5.80;1.00;;;;;;5074324;28;20452;-62
2022/03/30 02:07:02;;;;;;;34.30;15.90;;;5.80;1.00;;;;;;5074106;28;20286;-62
2022/03/30 02:09:29;;;;;;;30.43;13.83;;;5.70;1.00;;;;;;5074097;28;20624;-61
2022/03/30 02:11:57;;;;;;;28.60;14.33;;;5.70;1.00;;;;;;5074209;28;20204;-62
2022/03/30 02:14:23;;;;;;;33.90;14.33;;;5.60;15.10;;;;;;5074549;28;20338;-62
2022/03/30 02:16:51;;;;;;;29.57;14.90;;;5.60;91.80;;;;;;5073889;28;20525;-62
2022/03/30 02:19:17;;;;;;;30.57;14.87;;;5.60;99.90;;;;;;5074085;28;20574;-62
2022/03/30 02:21:44;;;;;;;38.57;15.20;;;5.50;99.90;;;;;;5074454;28;20451;-62
2022/03/30 02:24:11;;;;;;;34.80;15.37;;;5.40;99.90;;;;;;5074306;28;20844;-62
2022/03/30 02:26:37;;;;;;;33.67;15.53;;;5.30;1.00;;;;;;5073660;28;20509;-62
2022/03/30 02:29:06;;;;;;;39.90;15.87;;;5.40;1.00;;;;;;5073882;28;20448;-62
2022/03/30 02:31:33;;;;;;;29.80;14.07;;;5.30;1.00;;;;;;5073847;28;20455;-60
2022/03/30 02:34:01;;;;;;;33.73;15.70;;;5.30;29.00;;;;;;5073654;28;20448;-62
2022/03/30 02:36:27;;;;;;;25.33;13.37;;;5.30;99.90;;;;;;5073418;28;20474;-61
2022/03/30 02:38:55;;;;;;;25.50;12.93;;;5.30;99.90;;;;;;5073746;28;20857;-62
2022/03/30 02:41:22;;;;;;;33.30;12.67;;;5.20;99.90;;;;;;5073797;28;20905;-62
2022/03/30 02:43:49;;;;;;;26.77;14.83;;;5.20;99.90;;;;;;5073607;28;20934;-62
2022/03/30 02:46:17;;;;;;;34.93;13.37;;;5.20;99.90;;;;;;5072891;28;20532;-62
2022/03/30 02:48:43;;;;;;;31.03;11.83;;;5.20;99.90;;;;;;5073717;28;20501;-62
2022/03/30 02:51:10;;;;;;;34.80;15.57;;;5.20;99.90;;;;;;5073588;28;20455;-62
2022/03/30 02:53:37;;;;;;;26.13;12.67;;;5.20;99.90;;;;;;5073706;28;20455;-62
2022/03/30 02:56:04;;;;;;;27.70;12.97;;;5.20;99.90;;;;;;5073018;28;20512;-62
2022/03/30 02:58:31;;;;;;;32.90;14.33;;;5.20;99.90;;;;;;5073319;28;20458;-62
2022/03/30 03:00:58;;;;;;;31.37;14.60;;;5.20;99.90;;;;;;5073295;28;20486;-62
2022/03/30 03:03:27;;;;;;;36.33;16.13;;;5.10;99.90;;;;;;5073639;28;20505;-62
2022/03/30 03:05:54;;;;;;;34.63;14.23;;;5.10;99.90;;;;;;5073301;28;20474;-62
2022/03/30 03:08:20;;;;;;;37.40;16.03;;;5.00;1.00;;;;;;5073248;28;20454;-61
2022/03/30 03:10:49;;;;;;;31.40;14.63;;;5.00;99.90;;;;;;5073197;28;20968;-62
2022/03/30 03:13:16;;;;;;;33.27;14.30;;;4.90;99.90;;;;;;5072837;28;20451;-62
2022/03/30 03:15:45;;;;;;;29.63;13.90;;;4.90;99.90;;;;;;5073084;28;20886;-62
2022/03/30 03:18:12;;;;;;;34.47;14.43;;;4.80;1.00;;;;;;5072741;28;20549;-62
2022/03/30 03:20:42;;;;;;;31.50;12.33;;;4.70;99.90;;;;;;5072101;28;20573;-61
2022/03/30 03:23:09;;;;;;;35.57;14.10;;;4.60;75.30;;;;;;5073015;28;20447;-61
2022/03/30 03:25:37;;;;;;;21.73;9.13;;;4.60;99.90;;;;;;5072681;28;20845;-62
2022/03/30 03:28:05;;;;;;;36.97;14.13;;;4.50;41.90;;;;;;5072833;28;20454;-62
2022/03/30 03:30:32;;;;;;;23.03;9.97;;;4.50;99.90;;;;;;5072882;28;20538;-62
2022/03/30 03:32:59;;;;;;;31.13;12.53;;;4.40;1.00;;;;;;5072838;28;20496;-61
2022/03/30 03:35:26;;;;;;;27.60;13.50;;;4.40;99.90;;;;;;5072347;28;20458;-62
2022/03/30 03:37:54;;;;;;;31.03;13.57;;;4.40;99.90;;;;;;5072211;28;20505;-61
2022/03/30 03:40:21;;;;;;;27.87;14.17;;;4.30;1.00;;;;;;5072268;28;20486;-62
2022/03/30 03:42:48;;;;;;;30.40;13.63;;;4.30;1.00;;;;;;5072503;28;20481;-62
2022/03/30 03:45:16;;;;;;;33.00;13.83;;;4.30;99.90;;;;;;5072643;28;20504;-62
2022/03/30 03:47:43;;;;;;;33.27;13.60;;;4.20;1.00;;;;;;5072375;28;20459;-62
2022/03/30 03:50:11;;;;;;;33.20;13.77;;;4.20;99.90;;;;;;5072510;28;20446;-62
2022/03/30 03:52:39;;;;;;;22.80;10.13;;;4.20;1.00;;;;;;5072313;28;20452;-62
2022/03/30 03:55:08;;;;;;;34.40;14.90;;;4.10;99.90;;;;;;5072714;28;20439;-62
2022/03/30 03:57:35;;;;;;;25.43;10.30;;;4.10;1.00;;;;;;5071952;28;20456;-62
2022/03/30 04:00:03;;;;;;;29.00;12.20;;;4.00;99.90;;;;;;5072189;28;20515;-62
2022/03/30 04:02:30;;;;;;;23.23;10.37;;;4.00;99.90;;;;;;5072174;28;20451;-62
2022/03/30 04:04:56;;;;;;;30.53;13.17;;;4.10;99.90;;;;;;5072221;28;20890;-62
2022/03/30 04:07:23;;;;;;;31.27;14.27;;;4.00;99.90;;;;;;5071737;28;20521;-61
2022/03/30 04:09:50;;;;;;;31.57;12.87;;;4.00;99.90;;;;;;5072156;28;20453;-62
2022/03/30 04:12:18;;;;;;;28.50;13.63;;;4.00;99.90;;;;;;5072239;28;20453;-62
2022/03/30 04:14:44;;;;;;;31.30;14.83;;;4.00;99.90;;;;;;5071996;28;20454;-62
2022/03/30 04:17:11;;;;;;;33.37;13.60;;;4.00;99.90;;;;;;5071732;28;20520;-62
2022/03/30 04:19:39;;;;;;;31.40;13.77;;;4.00;99.90;;;;;;5071843;28;20846;-62
2022/03/30 04:22:05;;;;;;;26.03;11.87;;;4.00;1.00;;;;;;5071838;28;20454;-61
2022/03/30 04:24:32;;;;;;;28.87;14.40;;;4.00;99.90;;;;;;5072181;28;20534;-62
2022/03/30 04:26:59;;;;;;;32.97;13.60;;;4.00;99.90;;;;;;5071673;28;20516;-62
2022/03/30 04:29:27;;;;;;;28.03;12.47;;;4.00;99.90;;;;;;5071978;28;20496;-62
2022/03/30 04:31:53;;;;;;;36.33;15.47;;;4.00;1.00;;;;;;5071571;28;20439;-62
2022/03/30 04:34:20;;;;;;;33.10;14.10;;;3.90;99.90;;;;;;5071796;28;20455;-61
2022/03/30 04:36:47;;;;;;;30.73;14.00;;;3.80;99.90;;;;;;5070913;28;20479;-61
2022/03/30 04:39:13;;;;;;;33.00;14.10;;;3.80;1.00;;;;;;5072049;28;20454;-62
2022/03/30 04:41:40;;;;;;;37.20;16.60;;;3.80;1.00;;;;;;5071797;28;20480;-61
2022/03/30 04:44:07;;;;;;;33.43;14.27;;;3.70;1.00;;;;;;5071991;28;20454;-60
2022/03/30 04:46:35;;;;;;;33.83;13.83;;;3.70;1.00;;;;;;5071490;28;20482;-61
2022/03/30 04:49:02;;;;;;;34.07;14.93;;;3.70;1.00;;;;;;5071586;28;20445;-60
2022/03/30 04:51:29;;;;;;;29.10;13.67;;;3.60;99.90;;;;;;5071871;28;20508;-61
2022/03/30 04:53:56;;;;;;;33.80;15.63;;;3.50;99.90;;;;;;5071628;28;20533;-60
2022/03/30 04:56:24;;;;;;;29.30;14.80;;;3.50;99.90;;;;;;5061613;28;20494;-60
2022/03/30 04:58:51;;;;;;;29.53;13.40;;;3.50;99.90;;;;;;5056302;28;20993;-60
2022/03/30 05:01:18;;;;;;;37.40;15.07;;;3.50;99.90;;;;;;5051382;28;20533;-60
2022/03/30 05:03:45;;;;;;;32.97;15.53;;;3.50;99.90;;;;;;5051346;28;20456;-60
2022/03/30 05:06:12;;;;;;;33.40;14.83;;;3.50;99.90;;;;;;5050785;28;21835;-61
2022/03/30 05:08:39;;;;;;;30.10;14.67;;;3.40;99.90;;;;;;5051618;28;20806;-60
2022/03/30 05:11:05;;;;;;;31.83;14.23;;;3.40;99.90;;;;;;5051191;28;20534;-61
2022/03/30 05:13:32;;;;;;;33.03;14.40;;;3.40;99.90;;;;;;5051412;28;20463;-62
2022/03/30 05:15:59;;;;;;;33.27;14.37;;;3.40;99.90;;;;;;5050645;28;20471;-62
2022/03/30 05:18:25;;;;;;;29.40;14.63;;;3.40;99.90;;;;;;5051302;28;20458;-61
2022/03/30 05:20:54;;;;;;;37.57;16.10;;;3.40;99.90;;;;;;5051541;28;20513;-62
2022/03/30 05:23:21;;;;;;;35.63;15.10;;;3.40;99.90;;;;;;5051267;28;20530;-62
2022/03/30 05:25:48;;;;;;;34.50;15.80;;;3.40;99.90;;;;;;5051276;28;20880;-61
2022/03/30 05:28:14;;;;;;;32.30;14.87;;;3.30;99.90;;;;;;5050602;28;20451;-62
2022/03/30 05:30:41;;;;;;;32.27;14.10;;;3.30;99.90;;;;;;5051375;28;20854;-61
2022/03/30 05:33:08;;;;;;;34.30;14.67;;;3.40;99.90;;;;;;5050742;28;20451;-61
2022/03/30 05:35:35;;;;;;;31.73;14.93;;;3.40;99.90;;;;;;5051112;28;20481;-62
2022/03/30 05:38:03;;;;;;;40.80;14.93;;;3.40;99.90;;;;;;5050815;28;20863;-65
2022/03/30 05:40:30;;;;;;;35.73;15.93;;;3.40;99.90;;;;;;5059871;28;20517;-63
2022/03/30 05:42:57;;;;;;;40.63;17.17;;;3.30;99.90;;;;;;5070745;28;20941;-63
2022/03/30 05:45:24;;;;;;;37.97;14.57;;;3.30;1.00;;;;;;5073397;28;20453;-63
2022/03/30 05:47:51;;;;;;;36.20;14.70;;;3.30;1.00;;;;;;5073936;28;20536;-62
2022/03/30 05:50:18;;;;;;;37.13;15.43;;;3.30;1.00;;;;;;5073579;28;20936;-63
2022/03/30 05:52:44;;;;;;;35.00;16.07;;;3.30;1.00;;;;;;5073657;28;20455;-63
2022/03/30 05:55:12;;;;;;;43.37;17.30;;;3.30;1.00;;;;;;5074124;28;20455;-64
2022/03/30 05:57:39;;;;;;;41.80;16.63;;;3.30;1.00;;;;;;5073005;28;20944;-65
2022/03/30 06:00:08;;;;;;;38.40;15.70;;;3.30;1.00;;;;;;5058039;28;20520;-64
2022/03/30 06:02:35;;;;;;;35.10;15.93;;;3.30;1.00;;;;;;5053694;28;20538;-64
2022/03/30 06:05:01;;;;;;;29.10;12.77;;;3.30;1.00;;;;;;5053744;28;20454;-64
2022/03/30 06:07:28;;;;;;;37.47;14.90;;;3.30;1.00;;;;;;5053452;28;20474;-63
2022/03/30 06:09:55;;;;;;;30.57;14.53;;;3.30;1.00;;;;;;5053247;28;20814;-65
2022/03/30 06:12:24;;;;;;;28.60;13.63;;;3.30;1.00;;;;;;5053779;28;20459;-65
2022/03/30 06:14:52;;;;;;;37.30;15.27;;;3.30;1.00;;;;;;5053315;28;20459;-64
2022/03/30 06:17:20;;;;;;;28.27;12.33;;;3.30;1.00;;;;;;5053027;28;20986;-65
2022/03/30 06:19:49;;;;;;;36.17;15.57;;;3.30;1.00;;;;;;5053120;28;20564;-66
2022/03/30 06:22:16;;;;;;;36.80;16.30;;;3.40;99.90;;;;;;5053005;28;20478;-63
2022/03/30 06:24:43;;;;;;;33.57;14.17;;;3.40;99.90;;;;;;5052461;28;20478;-66
2022/03/30 06:27:11;;;;;;;30.90;15.97;;;3.50;99.90;;;;;;5052522;28;20499;-65
2022/03/30 06:29:41;;;;;;;36.63;15.87;;;3.60;99.90;;;;;;5053225;28;20875;-67
2022/03/30 06:32:08;;;;;;;33.87;14.47;;;3.60;99.90;;;;;;5053687;28;20433;-64
2022/03/30 06:34:36;;;;;;;31.43;15.83;;;3.60;99.90;;;;;;5053072;28;20448;-63
2022/03/30 06:37:05;;;;;;;35.83;15.73;;;3.70;99.90;;;;;;5059706;28;20902;-63
2022/03/30 06:39:32;;;;;;;35.50;15.30;;;3.70;99.90;;;;;;5072242;28;20454;-62
2022/03/30 06:41:59;;;;;;;36.50;13.77;;;3.70;94.90;;;;;;5073556;28;20563;-63
2022/03/30 06:44:26;;;;;;;29.80;16.13;;;3.70;1.00;;;;;;5073227;28;20883;-63
2022/03/30 06:46:54;;;;;;;29.00;13.43;;;3.70;1.00;;;;;;5072626;28;20474;-63
2022/03/30 06:49:20;;;;;;;38.00;16.00;;;3.70;99.90;;;;;;5072978;28;20474;-63
2022/03/30 06:51:47;;;;;;;34.97;15.80;;;3.80;99.90;;;;;;5072325;28;20446;-63
2022/03/30 06:54:14;;;;;;;32.83;14.97;;;3.80;99.90;;;;;;5072621;28;20480;-61
2022/03/30 06:56:41;;;;;;;31.73;14.37;;;3.80;99.90;;;;;;5072253;28;20536;-61
2022/03/30 06:59:07;;;;;;;34.73;14.73;;;3.90;99.90;;;;;;5072586;28;20465;-65
2022/03/30 07:01:35;;;;;;;41.37;16.07;;;3.90;1.00;;;;;;5072516;28;20506;-66
2022/03/30 07:04:03;;;;;;;29.07;13.73;;;4.00;99.90;;;;;;5072607;28;20485;-64
2022/03/30 07:06:30;;;;;;;35.13;15.93;;;4.00;99.90;;;;;;5072383;28;20478;-62
2022/03/30 07:11:41;;;;;;;36.57;14.37;;;4.20;99.90;;;;;;5072642;28;20484;-62
2022/03/30 07:14:07;;;;;;;30.03;15.33;;;4.30;99.90;;;;;;5072802;28;20452;-61
2022/03/30 07:16:34;;;;;;;37.67;16.00;;;4.30;99.90;;;;;;5072011;28;20482;-60
2022/03/30 07:19:02;;;;;;;34.40;16.10;;;4.40;1.00;;;;;;5072381;28;20497;-62
2022/03/30 07:21:29;;;;;;;31.77;14.47;;;4.60;99.90;;;;;;5071969;28;20495;-62
2022/03/30 07:23:55;;;;;;;29.13;14.73;;;4.70;99.90;;;;;;5072576;28;20451;-63
2022/03/30 07:26:22;;;;;;;32.80;15.67;;;4.80;1.00;;;;;;5071619;28;20466;-63
2022/03/30 07:28:49;;;;;;;30.20;15.50;;;4.90;99.90;;;;;;5071987;28;20451;-62
2022/03/30 07:31:15;;;;;;;32.10;15.90;;;5.00;99.90;;;;;;5072052;28;20450;-63
2022/03/30 07:33:42;;;;;;;34.57;15.63;;;5.20;34.30;;;;;;5071545;28;20516;-61
2022/03/30 07:36:10;;;;;;;34.07;15.37;;;5.30;1.00;;;;;;5071747;28;20483;-62
2022/03/30 07:38:37;;;;;;;33.73;15.80;;;5.40;59.20;;;;;;5071793;28;20454;-61
2022/03/30 07:41:04;;;;;;;31.63;15.30;;;5.50;99.90;;;;;;5071943;28;20838;-64
2022/03/30 07:43:30;;;;;;;32.10;14.37;;;5.60;1.00;;;;;;5071826;28;20447;-64
2022/03/30 07:45:57;;;;;;;35.30;15.20;;;5.60;99.90;;;;;;5071190;28;20512;-65
2022/03/30 07:48:24;;;;;;;26.10;13.93;;;5.70;99.90;;;;;;5071551;28;20300;-65
2022/03/30 07:50:51;;;;;;;28.27;15.27;;;5.80;99.90;;;;;;5071447;28;20474;-63
2022/03/30 07:53:19;;;;;;;35.87;15.93;;;5.90;10.90;;;;;;5071874;28;20282;-60
2022/03/30 07:55:47;;;;;;;29.10;14.90;;;6.00;1.00;;;;;;5071453;28;20505;-61
2022/03/30 07:58:13;;;;;;;32.27;14.67;;;6.10;1.00;;;;;;5071061;28;20946;-60
2022/03/30 08:00:40;;;;;;;38.40;17.37;;;6.20;1.00;;;;;;5070985;28;20222;-60
2022/03/30 08:03:08;;;;;;;35.83;15.50;;;6.20;1.00;;;;;;5071301;28;20209;-60
2022/03/30 08:05:35;;;;;;;37.63;17.57;;;6.20;99.90;;;;;;5071787;28;20222;-61
2022/03/30 08:08:02;;;;;;;37.27;14.90;;;6.50;99.90;;;;;;5070575;28;20449;-59
2022/03/30 08:10:33;;;;;;;28.00;12.73;;;6.60;99.90;;;;;;5071155;28;20207;-61
2022/03/30 08:13:00;;;;;;;31.10;15.73;;;6.60;99.90;;;;;;5071232;28;20206;-64
2022/03/30 08:15:27;;;;;;;29.60;13.87;;;6.50;99.90;;;;;;5070959;28;20598;-66
2022/03/30 08:17:54;;;;;;;37.30;17.90;;;6.50;99.90;;;;;;5071321;28;20625;-65
2022/03/30 08:23:07;;;;;;;25.43;13.87;;;6.70;99.90;;;;;;5071439;28;20345;-64
2022/03/30 08:25:35;;;;;;;26.90;10.80;;;6.90;47.70;;;;;;5071005;28;20226;-63
2022/03/30 08:28:03;;;;;;;31.83;14.40;;;6.80;1.00;;;;;;5071067;28;20580;-61
2022/03/30 08:30:31;;;;;;;27.83;13.50;;;6.90;1.00;;;;;;5071247;28;20207;-61
2022/03/30 08:32:58;;;;;;;31.67;13.70;;;7.00;1.00;;;;;;5071517;28;20211;-62
2022/03/30 08:35:25;;;;;;;26.83;14.17;;;7.20;1.00;;;;;;5071615;28;20256;-62
2022/03/30 08:37:52;;;;;;;26.17;13.10;;;7.40;1.00;;;;;;5070273;28;20207;-63
2022/03/30 08:40:19;;;;;;;18.33;9.13;;;7.60;1.00;;;;;;5070604;28;20203;-62
2022/03/30 08:42:49;;;;;;;24.10;11.53;;;7.70;1.00;;;;;;5070597;28;20263;-62
2022/03/30 08:45:16;;;;;;;19.63;10.00;;;7.60;99.90;;;;;;5070956;28;20207;-62
2022/03/30 08:47:42;;;;;;;24.67;10.63;;;7.70;99.90;;;;;;5070852;28;20207;-62
2022/03/30 08:50:10;;;;;;;19.03;11.10;;;7.70;99.90;;;;;;5070403;28;20758;-64
2022/03/30 08:52:37;;;;;;;19.97;10.40;;;7.70;99.90;;;;;;5071079;28;20222;-62
2022/03/30 08:55:06;;;;;;;24.90;10.13;;;7.80;99.90;;;;;;5070872;28;20251;-64
2022/03/30 08:57:33;;;;;;;27.50;11.70;;;8.00;99.90;;;;;;5070544;28;20237;-64
2022/03/30 09:00:05;;;;;;;18.50;9.00;;;8.10;99.90;;;;;;5070823;28;20207;-64
2022/03/30 09:02:37;;;;;;;32.37;12.77;;;8.20;99.90;;;;;;5070609;28;20319;-64
2022/03/30 09:05:19;;;;;;;25.33;9.90;;;8.20;99.90;;;;;;5071015;28;20205;-64
2022/03/30 09:07:49;;;;;;;21.27;10.30;;;8.20;99.90;;;;;;5069880;28;20303;-68
2022/03/30 09:10:18;;;;;;;23.53;10.77;;;8.30;99.90;;;;;;5070689;28;20208;-68
2022/03/30 09:12:46;;;;;;;17.90;8.23;;;8.20;99.90;;;;;;5070771;28;20220;-62
2022/03/30 09:15:15;;;;;;;21.97;11.70;;;8.30;99.90;;;;;;5070645;28;20266;-64
2022/03/30 09:17:43;;;;;;;23.83;10.20;;;8.20;99.90;;;;;;5070521;28;20205;-64
2022/03/30 09:20:16;;;;;;;11.40;5.70;;;8.30;99.90;;;;;;5073035;28;20215;-64
2022/03/30 09:22:44;;;;;;;22.53;10.53;;;8.40;99.90;;;;;;5074626;28;20271;-69
2022/03/30 09:25:12;;;;;;;19.77;10.93;;;8.20;99.90;;;;;;5074190;28;20701;-65
2022/03/30 09:27:41;;;;;;;16.03;9.20;;;8.40;99.90;;;;;;5074203;28;20213;-65
2022/03/30 09:30:10;;;;;;;23.07;7.97;;;8.50;99.90;;;;;;5074017;28;20577;-67
2022/03/30 09:32:40;;;;;;;20.77;8.97;;;8.50;99.90;;;;;;5073871;28;20201;-63
2022/03/30 09:35:19;;;;;;;12.13;7.13;;;8.70;99.90;;;;;;5074520;28;20292;-63
2022/03/30 09:37:46;;;;;;;7.03;4.47;;;8.80;99.90;;;;;;5073767;28;20208;-62
2022/03/30 09:40:13;;;;;;;20.77;9.47;;;8.60;99.90;;;;;;5074077;28;20213;-63
2022/03/30 09:42:40;;;;;;;19.33;8.67;;;8.70;99.90;;;;;;5074300;28;20626;-63
2022/03/30 09:45:07;;;;;;;17.37;8.67;;;8.90;99.90;;;;;;5074004;28;20262;-63
2022/03/30 09:47:39;;;;;;;20.70;9.00;;;9.00;99.90;;;;;;5073709;28;20232;-62
2022/03/30 09:50:08;;;;;;;25.17;9.07;;;9.00;99.90;;;;;;5073486;28;20666;-63
2022/03/30 09:52:35;;;;;;;17.77;8.97;;;9.20;99.90;;;;;;5073807;28;20687;-65
2022/03/30 09:55:04;;;;;;;17.73;7.80;;;9.20;99.90;;;;;;5073515;28;20699;-66
2022/03/30 09:57:42;;;;;;;23.33;9.00;;;9.30;99.90;;;;;;5073221;28;20232;-65
2022/03/30 10:00:10;;;;;;;19.73;8.70;;;9.20;99.90;;;;;;5073602;28;20240;-65
2022/03/30 10:02:40;;;;;;;15.83;7.50;;;9.30;99.90;;;;;;5073837;28;20567;-65
2022/03/30 10:05:11;;;;;;;15.53;7.87;;;9.40;99.90;;;;;;5073898;28;20256;-66
2022/03/30 10:07:38;;;;;;;15.30;8.20;;;9.50;99.90;;;;;;5072987;28;20210;-68
2022/03/30 10:10:08;;;;;;;19.33;8.40;;;9.60;99.90;;;;;;5073341;28;20206;-63
2022/03/30 10:12:35;;;;;;;17.47;8.60;;;9.70;99.90;;;;;;5073553;28;20205;-62
2022/03/30 10:15:03;;;;;;;17.90;7.63;;;9.80;99.90;;;;;;5074032;28;20266;-62
2022/03/30 10:17:30;;;;;;;11.60;6.10;;;9.90;99.90;;;;;;5073662;28;20244;-62
2022/03/30 10:20:02;;;;;;;13.40;7.63;;;10.00;99.90;;;;;;5073728;28;20284;-62
2022/03/30 10:22:52;;;;;;;13.43;7.20;;;9.80;99.90;;;;;;5073848;28;20239;-62
2022/03/30 10:25:33;;;;;;;19.43;8.23;;;9.40;99.90;;;;;;5073507;28;20202;-61
2022/03/30 10:28:17;;;;;;;14.27;7.20;;;9.50;99.90;;;;;;5073331;28;20660;-61
2022/03/30 10:30:45;;;;;;;16.67;8.43;;;9.70;99.90;;;;;;5072422;28;20205;-61
2022/03/30 10:33:13;;;;;;;13.93;7.37;;;9.90;99.90;;;;;;5073110;28;20206;-62
2022/03/30 10:35:42;;;;;;;14.67;7.30;;;10.00;99.90;;;;;;5073162;28;20599;-62
2022/03/30 10:38:10;;;;;;;16.47;8.07;;;9.90;99.90;;;;;;5071955;28;20612;-64
2022/03/30 10:40:37;;;;;;;12.53;6.93;;;9.80;99.90;;;;;;5072967;28;20212;-66
2022/03/30 10:43:07;;;;;;;13.60;7.50;;;10.00;99.90;;;;;;5072486;28;20624;-62
2022/03/30 10:45:50;;;;;;;17.27;7.33;;;10.10;99.90;;;;;;5072778;28;20239;-62
2022/03/30 10:48:20;;;;;;;12.97;6.70;;;10.20;99.90;;;;;;5072823;28;20213;-62
2022/03/30 10:50:51;;;;;;;12.80;6.27;;;10.40;99.90;;;;;;5073164;28;20289;-63
2022/03/30 10:53:43;;;;;;;15.00;7.83;;;10.30;99.90;;;;;;5073064;28;20206;-63
2022/03/30 10:56:29;;;;;;;12.37;6.77;;;10.30;99.90;;;;;;5072073;28;20228;-63
2022/03/30 10:59:15;;;;;;;11.83;6.53;;;10.40;99.90;;;;;;5072686;28;20207;-63
2022/03/30 11:01:42;;;;;;;13.23;7.17;;;10.50;99.90;;;;;;5072286;28;20233;-63
2022/03/30 11:04:18;;;;;;;11.47;6.50;;;10.70;99.90;;;;;;5071766;28;20218;-64
2022/03/30 11:06:49;;;;;;;12.43;7.10;;;10.70;99.90;;;;;;5072065;28;20231;-63
2022/03/30 11:09:23;;;;;;;13.07;7.27;;;10.50;99.90;;;;;;5072482;28;20213;-65
2022/03/30 11:11:58;;;;;;;14.03;7.03;;;10.30;99.90;;;;;;5071958;28;20677;-69
2022/03/30 11:14:32;;;;;;;21.53;8.80;;;10.30;99.90;;;;;;5072365;28;20227;-67
2022/03/30 11:17:01;;;;;;;11.70;5.80;;;10.30;99.90;;;;;;5071819;28;20228;-64
2022/03/30 11:19:32;;;;;;;12.03;6.43;;;10.50;99.90;;;;;;5071358;28;20289;-63
2022/03/30 11:22:11;;;;;;;11.07;6.77;;;10.20;99.90;;;;;;5072244;28;20221;-63
2022/03/30 11:24:39;;;;;;;7.30;3.93;;;10.30;99.90;;;;;;5072147;28;20199;-65
2022/03/30 11:27:23;;;;;;;13.23;7.30;;;10.20;99.90;;;;;;5071415;28;20230;-64
2022/03/30 11:30:10;;;;;;;11.20;7.07;;;10.30;99.90;;;;;;5071446;28;20205;-65
2022/03/30 11:33:01;;;;;;;14.80;8.03;;;10.40;99.90;;;;;;5071777;28;20192;-62
2022/03/30 11:35:35;;;;;;;14.57;6.50;;;10.40;98.90;;;;;;5071406;28;20206;-61
2022/03/30 11:38:11;;;;;;;13.47;7.17;;;10.40;99.90;;;;;;5071774;28;20209;-61
2022/03/30 11:40:42;;;;;;;14.13;8.10;;;10.50;99.90;;;;;;5071419;28;20204;-62
2022/03/30 11:43:10;;;;;;;13.27;8.10;;;10.70;99.90;;;;;;5070871;28;20280;-61
2022/03/30 11:45:37;;;;;;;12.03;7.67;;;10.90;99.90;;;;;;5071634;28;20223;-62
2022/03/30 11:48:07;;;;;;;11.10;7.20;;;10.90;99.90;;;;;;5071193;28;20205;-66
2022/03/30 11:50:36;;;;;;;13.40;7.70;;;11.10;99.90;;;;;;5071341;28;20208;-63
2022/03/30 11:53:05;;;;;;;16.57;8.20;;;11.30;99.90;;;;;;5071580;28;20205;-62
2022/03/30 11:55:36;;;;;;;14.43;8.73;;;11.50;99.90;;;;;;5071248;28;20224;-63
2022/03/30 11:58:04;;;;;;;14.33;8.03;;;11.50;99.90;;;;;;5071335;28;20256;-63
2022/03/30 12:00:32;;;;;;;12.10;6.67;;;11.30;99.90;;;;;;5070736;28;20211;-63
2022/03/30 12:03:00;;;;;;;14.13;8.43;;;11.30;99.90;;;;;;5071639;28;20286;-62
2022/03/30 12:05:27;;;;;;;14.27;7.40;;;11.20;99.90;;;;;;5071202;28;20207;-63
2022/03/30 12:07:56;;;;;;;14.80;8.27;;;11.30;99.90;;;;;;5071237;28;20208;-62
2022/03/30 12:10:31;;;;;;;13.63;8.23;;;11.40;99.90;;;;;;5070831;28;20209;-66
2022/03/30 12:13:00;;;;;;;12.33;7.43;;;11.60;99.90;;;;;;5070927;28;20289;-63
2022/03/30 12:15:27;;;;;;;14.37;7.77;;;11.70;99.90;;;;;;5061117;28;20212;-64
2022/03/30 12:17:56;;;;;;;15.27;9.53;;;11.60;99.90;;;;;;5051193;28;20681;-66
2022/03/30 12:20:26;;;;;;;13.70;6.60;;;11.60;99.90;;;;;;5069375;28;20209;-65
2022/03/30 12:23:01;;;;;;;14.23;6.20;;;11.60;99.90;;;;;;5071746;28;20225;-65
2022/03/30 12:25:30;;;;;;;16.30;8.30;;;11.20;96.20;;;;;;5071234;28;20208;-64
2022/03/30 12:27:57;;;;;;;14.50;7.93;;;11.00;96.70;;;;;;5071547;28;20243;-64
2022/03/30 12:30:25;;;;;;;10.07;4.20;;;11.10;96.50;;;;;;5071586;28;20575;-65
2022/03/30 12:32:52;;;;;;;14.03;7.43;;;11.10;99.50;;;;;;5071609;28;20208;-64
2022/03/30 12:35:20;;;;;;;16.87;8.83;;;11.40;99.70;;;;;;5071360;28;20201;-65
2022/03/30 12:37:49;;;;;;;14.70;9.23;;;11.50;99.90;;;;;;5071170;28;20209;-62
2022/03/30 12:40:22;;;;;;;15.97;8.63;;;11.30;98.80;;;;;;5071438;28;20694;-63
2022/03/30 12:42:50;;;;;;;20.00;8.93;;;11.10;96.80;;;;;;5071235;28;20243;-62
2022/03/30 12:45:18;;;;;;;12.67;7.53;;;11.20;99.60;;;;;;5071460;28;20226;-62
2022/03/30 12:47:50;;;;;;;15.00;9.07;;;11.40;99.80;;;;;;5050909;28;20209;-62
2022/03/30 12:50:23;;;;;;;15.23;9.03;;;11.50;99.90;;;;;;5051438;28;20698;-64
2022/03/30 12:52:51;;;;;;;13.00;8.20;;;11.50;99.90;;;;;;5052226;28;20636;-63
2022/03/30 12:55:23;;;;;;;16.30;9.43;;;11.50;99.90;;;;;;5054879;28;20205;-64